.
WxDataArchive / Data Records for 2009-05-29
2009-05-28 May 2009 2009-05-30

Data Records for Friday, 29 May 2009

Time	Temp	Chill	HIndex	Humid	Dewpt	 Wind 	HiWind	WindDir	Rain 	Barom 
-----	----	-----	------	-----	-----	------	------	-------	-----	----- 
00:00	56.0	56.0	56.0	79	49.6	1	6	315	0.00	29.800 
00:05	55.9	55.9	55.9	79	49.5	1	4	315	0.00	29.800 
00:10	55.7	55.7	55.7	78	48.9	1	3	315	0.00	29.800 
00:15	55.6	55.6	55.6	80	49.5	1	3	292	0.00	29.801 
00:20	55.4	55.4	55.4	81	49.7	0	1	292	0.00	29.801 
00:25	55.4	55.4	55.4	81	49.7	0	2	292	0.00	29.801 
00:30	55.3	55.3	55.3	81	49.6	0	3	315	0.00	29.805 
00:35	55.1	55.1	55.1	82	49.7	0	1	315	0.00	29.805 
00:40	55.0	55.0	55.0	82	49.6	0	1	315	0.00	29.805 
00:45	54.8	54.8	54.8	82	49.4	0	2	315	0.00	29.805 
00:50	54.8	54.8	54.8	83	49.7	0	2	315	0.00	29.805 
00:55	54.7	54.7	54.7	83	49.6	0	2	315	0.00	29.805 
01:00	54.7	54.7	54.7	84	50.0	0	1	315	0.00	29.808 
01:05	54.5	54.5	54.5	84	49.8	0	2	315	0.00	29.808 
01:10	54.4	54.4	54.4	84	49.7	0	1	315	0.00	29.808 
01:15	54.2	54.2	54.2	85	49.8	0	1	315	0.00	29.807 
01:20	53.9	53.9	53.9	85	49.5	0	1	315	0.00	29.807 
01:25	53.8	53.8	53.8	86	49.7	0	1	315	0.00	29.807 
01:30	53.6	53.6	53.6	86	49.5	0	1	315	0.00	29.803 
01:35	53.5	53.5	53.5	86	49.4	0	1	315	0.00	29.803 
01:40	53.5	53.5	53.5	87	49.7	0	1	315	0.00	29.803 
01:45	53.3	53.3	53.3	87	49.5	0	1	315	0.00	29.802 
01:50	53.2	53.2	53.2	87	49.4	0	1	315	0.00	29.802 
01:55	53.2	53.2	53.2	88	49.7	0	1	315	0.00	29.802 
02:00	53.1	53.1	53.1	88	49.6	0	1	315	0.00	29.802 
02:05	52.9	52.9	52.9	88	49.4	0	1	315	0.00	29.802 
02:10	52.8	52.8	52.8	88	49.3	0	0	---	0.00	29.802 
02:15	52.6	52.6	52.6	88	49.1	0	0	---	0.00	29.802 
02:20	52.5	52.5	52.5	89	49.4	0	1	315	0.00	29.802 
02:25	52.3	52.3	52.3	89	49.2	0	0	---	0.00	29.802 
02:30	52.2	52.2	52.2	89	49.1	0	0	---	0.00	29.812 
02:35	52.0	52.0	52.0	89	48.9	0	0	---	0.00	29.812 
02:40	51.9	51.9	51.9	90	49.1	0	0	---	0.00	29.812 
02:45	51.9	51.9	51.9	90	49.1	0	0	---	0.00	29.813 
02:50	51.7	51.7	51.7	90	48.9	0	0	---	0.00	29.813 
02:55	51.6	51.6	51.6	90	48.8	0	0	---	0.00	29.813 
03:00	51.6	51.6	51.6	91	49.1	0	1	315	0.00	29.814 
03:05	51.6	51.6	51.6	91	49.1	0	1	315	0.00	29.814 
03:10	51.6	51.6	51.6	91	49.1	0	1	315	0.00	29.814 
03:15	51.4	51.4	51.4	91	48.9	0	0	---	0.00	29.812 
03:20	51.4	51.4	51.4	91	48.9	0	1	315	0.00	29.812 
03:25	51.4	51.4	51.4	92	49.2	0	1	315	0.00	29.812 
03:30	51.4	51.4	51.4	92	49.2	0	1	315	0.00	29.817 
03:35	51.4	51.4	51.4	92	49.2	0	1	315	0.00	29.817 
03:40	51.3	51.3	51.3	92	49.1	0	1	315	0.00	29.817 
03:45	51.3	51.3	51.3	92	49.1	0	1	315	0.00	29.820 
03:50	51.3	51.3	51.3	92	49.1	0	1	315	0.00	29.820 
03:55	51.3	51.3	51.3	92	49.1	0	1	315	0.00	29.820 
04:00	51.3	51.3	51.3	92	49.1	0	1	315	0.00	29.822 
04:05	51.3	51.3	51.3	92	49.1	0	1	315	0.00	29.822 
04:10	51.3	51.3	51.3	92	49.1	0	1	315	0.00	29.822 
04:15	51.3	51.3	51.3	93	49.3	0	1	315	0.00	29.829 
04:20	51.3	51.3	51.3	93	49.3	0	1	315	0.00	29.829 
04:25	51.3	51.3	51.3	93	49.3	0	1	315	0.00	29.829 
04:30	51.1	51.1	51.1	93	49.1	0	1	315	0.00	29.833 
04:35	51.1	51.1	51.1	93	49.1	0	1	315	0.00	29.833 
04:40	51.1	51.1	51.1	93	49.1	0	1	315	0.00	29.833 
04:45	51.1	51.1	51.1	93	49.1	0	1	315	0.00	29.834 
04:50	51.1	51.1	51.1	93	49.1	0	1	315	0.00	29.834 
04:55	51.1	51.1	51.1	93	49.1	0	1	315	0.00	29.834 
05:00	51.0	51.0	51.0	93	49.0	0	1	315	0.00	29.835 
05:05	51.0	51.0	51.0	93	49.0	0	0	---	0.00	29.835 
05:10	50.8	50.8	50.8	93	48.8	0	0	---	0.00	29.835 
05:15	50.8	50.8	50.8	93	48.8	0	0	---	0.00	29.837 
05:20	50.7	50.7	50.7	93	48.7	0	0	---	0.00	29.837 
05:25	50.5	50.5	50.5	93	48.6	0	0	---	0.00	29.837 
05:30	50.4	50.4	50.4	93	48.5	0	0	---	0.00	29.837 
05:35	50.2	50.2	50.2	93	48.3	0	0	---	0.00	29.837 
05:40	50.2	50.2	50.2	93	48.3	0	0	---	0.00	29.837 
05:45	50.1	50.1	50.1	93	48.2	0	0	---	0.00	29.842 
05:50	49.9	49.9	49.9	94	48.2	0	0	---	0.00	29.842 
05:55	49.8	49.8	49.8	93	47.9	0	0	---	0.00	29.842 
06:00	49.5	49.5	49.5	93	47.6	0	0	---	0.00	29.847 
06:05	49.4	49.4	49.4	94	47.7	0	0	---	0.00	29.847 
06:10	49.2	49.2	49.2	94	47.5	0	0	---	0.00	29.847 
06:15	48.9	48.9	48.9	94	47.2	0	0	---	0.00	29.852 
06:20	48.9	48.9	48.9	94	47.2	0	0	---	0.00	29.852 
06:25	48.8	48.8	48.8	94	47.1	0	0	---	0.00	29.852 
06:30	48.8	48.8	48.8	94	47.1	0	0	---	0.00	29.854 
06:35	48.9	48.9	48.9	94	47.2	0	0	---	0.00	29.854 
06:40	49.1	49.1	49.1	94	47.4	0	0	---	0.00	29.854 
06:45	49.2	49.2	49.2	94	47.5	0	0	---	0.00	29.856 
06:50	49.4	49.4	49.4	94	47.7	0	0	---	0.00	29.856 
06:55	49.5	49.5	49.5	95	48.1	0	0	---	0.00	29.856 
07:00	49.6	49.6	49.6	95	48.2	0	0	---	0.00	29.860 
07:05	49.9	49.9	49.9	95	48.5	0	0	---	0.00	29.860 
07:10	50.4	50.4	50.4	95	49.0	0	0	---	0.00	29.860 
07:15	50.8	50.8	50.8	95	49.4	0	1	315	0.00	29.867 
07:20	51.1	51.1	51.1	95	49.7	0	0	---	0.00	29.867 
07:25	51.6	51.6	51.6	95	50.2	0	1	315	0.00	29.867 
07:30	52.0	52.0	52.0	95	50.6	0	1	315	0.00	29.870 
07:35	52.3	52.3	52.3	95	50.9	0	0	---	0.00	29.870 
07:40	52.6	52.6	52.6	95	51.2	0	1	315	0.00	29.870 
07:45	53.1	53.1	53.1	95	51.7	0	1	315	0.00	29.871 
07:50	53.5	53.5	53.5	95	52.1	0	1	315	0.00	29.871 
07:55	54.1	54.1	54.1	95	52.7	0	1	315	0.00	29.871 
08:00	54.5	54.5	54.5	94	52.8	0	1	315	0.00	29.869 
08:05	55.1	55.1	55.1	94	53.4	0	2	315	0.00	29.869 
08:10	55.7	55.7	55.7	93	53.7	0	2	315	0.00	29.869 
08:15	56.2	56.2	56.2	92	53.9	0	2	315	0.00	29.872 
08:20	56.7	56.7	56.7	91	54.1	0	0	---	0.00	29.872 
08:25	57.3	57.3	57.3	89	54.1	0	0	---	0.00	29.872 
08:30	58.0	58.0	58.0	88	54.5	0	0	---	0.00	29.874 
08:35	58.6	58.6	58.6	87	54.7	0	0	---	0.00	29.874 
08:40	59.3	59.3	59.3	86	55.1	0	0	---	0.00	29.874 
08:45	59.9	59.9	59.9	84	55.0	0	2	248	0.00	29.870 
08:50	60.4	60.4	60.4	82	54.9	1	2	248	0.00	29.870 
08:55	60.7	60.7	60.7	81	54.8	1	2	248	0.00	29.870 
09:00	61.3	61.3	61.3	81	55.4	0	2	225	0.00	29.869 
09:05	61.8	61.8	61.8	79	55.2	1	3	225	0.00	29.869 
09:10	62.3	62.3	62.3	79	55.7	1	3	225	0.00	29.869 
09:15	62.6	62.6	62.6	78	55.6	1	3	225	0.00	29.871 
09:20	62.9	62.9	62.9	78	55.9	1	2	248	0.00	29.871 
09:25	63.4	63.4	63.4	77	56.1	1	3	248	0.00	29.871 
09:30	63.7	63.7	63.7	75	55.6	1	3	248	0.00	29.870 
09:35	64.2	64.2	64.2	75	56.1	1	3	248	0.00	29.870 
09:40	64.5	64.5	64.5	75	56.4	1	3	315	0.00	29.870 
09:45	64.5	64.5	64.5	72	55.3	2	4	270	0.00	29.866 
09:50	64.8	64.8	64.8	73	55.9	2	3	315	0.00	29.866 
09:55	65.0	65.0	65.0	72	55.7	1	3	248	0.00	29.866 
10:00	65.2	65.2	65.2	73	56.3	2	4	248	0.00	29.869 
10:05	65.3	65.3	65.3	73	56.4	2	4	270	0.00	29.869 
10:10	65.6	65.6	65.6	73	56.7	2	4	315	0.00	29.869 
10:15	65.8	65.8	65.8	72	56.5	2	3	338	0.00	29.870 
10:20	66.0	66.0	66.0	71	56.3	2	4	315	0.00	29.870 
10:25	66.1	66.1	66.1	71	56.4	2	4	270	0.00	29.870 
10:30	66.4	66.4	66.4	70	56.3	2	4	248	0.00	29.871 
10:35	66.6	66.6	66.6	70	56.5	2	4	315	0.00	29.871 
10:40	66.9	66.9	66.9	70	56.8	2	4	270	0.00	29.871 
10:45	67.1	67.1	67.1	69	56.6	2	5	315	0.00	29.870 
10:50	67.4	67.4	67.4	69	56.9	1	4	270	0.00	29.870 
10:55	68.1	68.1	68.1	70	57.9	2	5	270	0.00	29.870 
11:00	68.4	68.4	68.4	68	57.4	2	4	270	0.00	29.861 
11:05	68.8	68.8	68.8	66	57.0	2	5	248	0.00	29.861 
11:10	68.9	68.9	68.9	65	56.6	3	5	270	0.00	29.861 
11:15	68.9	68.9	68.9	64	56.2	3	5	270	0.00	29.863 
11:20	69.3	69.3	69.3	64	56.6	2	6	292	0.00	29.863 
11:25	69.6	69.6	69.6	63	56.4	3	5	292	0.00	29.863 
11:30	69.6	69.6	69.6	61	55.5	3	6	270	0.00	29.859 
11:35	69.8	69.8	69.8	62	56.2	2	5	315	0.00	29.859 
11:40	70.1	70.1	70.1	62	56.5	2	5	292	0.00	29.859 
11:45	70.4	70.4	70.4	61	56.3	2	5	248	0.00	29.858 
11:50	70.4	70.4	70.4	60	55.8	2	5	315	0.00	29.858 
11:55	70.9	70.9	70.9	62	57.2	2	4	270	0.00	29.858 
12:00	71.5	71.5	71.5	58	55.9	2	5	292	0.00	29.857 
12:05	71.5	71.5	71.5	58	55.9	2	5	248	0.00	29.857 
12:10	71.8	71.8	71.8	59	56.7	2	3	292	0.00	29.857 
12:15	72.3	72.3	72.3	58	56.7	2	4	270	0.00	29.859 
12:20	72.3	72.3	72.3	58	56.7	2	4	315	0.00	29.859 
12:25	72.3	72.3	72.3	58	56.7	2	5	270	0.00	29.859 
12:30	73.0	73.0	73.0	58	57.3	1	3	270	0.00	29.856 
12:35	73.2	73.2	73.2	56	56.5	3	6	270	0.00	29.856 
12:40	72.8	72.8	72.8	54	55.2	3	7	270	0.00	29.856 
12:45	72.8	72.8	72.8	56	56.2	3	6	292	0.00	29.855 
12:50	73.0	73.0	73.0	56	56.4	2	4	315	0.00	29.855 
12:55	73.5	73.5	73.5	55	56.3	2	4	270	0.00	29.855 
13:00	73.7	73.7	73.7	55	56.5	3	5	292	0.00	29.856 
13:05	73.9	73.9	73.9	56	57.2	2	6	292	0.00	29.856 
13:10	74.0	74.0	74.0	53	55.8	2	3	315	0.00	29.856 
13:15	74.4	74.4	74.4	54	56.7	2	4	292	0.00	29.857 
13:20	74.6	74.6	74.6	55	57.3	2	5	315	0.00	29.857 
13:25	74.6	74.6	74.6	52	55.8	3	5	270	0.00	29.857 
13:30	74.6	74.6	74.6	50	54.7	2	5	270	0.00	29.854 
13:35	74.9	74.9	74.9	51	55.5	2	5	270	0.00	29.854 
13:40	75.1	75.1	77.6	53	56.8	3	5	292	0.00	29.854 
13:45	75.1	75.1	77.7	51	55.7	2	6	315	0.00	29.854 
13:50	75.1	75.1	77.7	50	55.2	3	9	292	0.00	29.854 
13:55	75.3	75.3	77.7	50	55.4	3	6	292	0.00	29.854 
14:00	75.4	75.4	77.8	50	55.4	3	5	292	0.00	29.854 
14:05	75.4	75.4	77.8	49	54.9	3	4	270	0.00	29.854 
14:10	75.6	75.6	77.9	48	54.5	3	6	315	0.00	29.854 
14:15	75.6	75.6	77.9	49	55.1	3	5	292	0.00	29.853 
14:20	75.8	75.8	78.0	50	55.8	3	5	270	0.00	29.853 
14:25	76.1	76.1	78.1	50	56.1	2	4	292	0.00	29.853 
14:30	76.7	76.7	78.4	49	56.1	2	6	270	0.00	29.847 
14:35	76.5	76.5	78.3	50	56.5	3	7	292	0.00	29.847 
14:40	76.5	76.5	78.3	48	55.3	2	6	315	0.00	29.847 
14:45	76.7	76.7	78.3	46	54.3	3	6	270	0.00	29.846 
14:50	76.7	76.7	78.3	46	54.3	2	6	315	0.00	29.846 
14:55	76.7	76.7	78.4	49	56.1	2	5	270	0.00	29.846 
15:00	77.2	77.2	78.7	50	57.1	2	4	292	0.00	29.845 
15:05	76.8	76.8	78.3	44	53.2	3	5	292	0.00	29.845 
15:10	76.3	76.3	78.1	46	54.0	2	4	292	0.00	29.845 
15:15	76.3	76.3	78.1	45	53.4	3	5	315	0.00	29.845 
15:20	76.3	76.3	78.1	45	53.4	3	5	270	0.00	29.845 
15:25	75.8	75.8	77.9	47	54.1	2	5	338	0.00	29.845 
15:30	76.7	76.7	78.4	48	55.5	2	6	292	0.00	29.845 
15:35	77.4	77.4	78.7	46	55.0	2	4	248	0.00	29.845 
15:40	77.6	77.6	78.7	44	53.9	3	6	270	0.00	29.845 
15:45	77.4	77.4	78.7	46	55.0	3	4	270	0.00	29.843 
15:50	77.0	77.0	78.4	44	53.4	2	5	270	0.00	29.843 
15:55	76.7	76.7	78.2	43	52.5	2	5	338	0.00	29.843 
16:00	76.1	76.1	78.0	44	52.6	2	4	292	0.00	29.842 
16:05	76.1	76.1	78.0	45	53.2	2	4	292	0.00	29.842 
16:10	76.1	76.1	78.0	46	53.8	1	4	315	0.00	29.842 
16:15	75.4	75.4	77.8	46	53.2	1	4	315	0.00	29.842 
16:20	75.3	75.3	77.7	49	54.8	1	2	315	0.00	29.842 
16:25	75.1	75.1	77.7	48	54.1	0	1	315	0.00	29.842 
16:30	74.7	74.7	74.7	48	53.7	1	3	315	0.00	29.840 
16:35	74.4	74.4	74.4	49	54.0	1	3	315	0.00	29.840 
16:40	74.4	74.4	74.4	49	54.0	0	2	270	0.00	29.840 
16:45	74.4	74.4	74.4	50	54.5	0	2	292	0.00	29.842 
16:50	74.4	74.4	74.4	50	54.5	0	2	292	0.00	29.842 
16:55	73.9	73.9	73.9	52	55.1	0	4	292	0.00	29.842 
17:00	73.2	73.2	73.2	55	56.0	0	1	292	0.00	29.841 
17:05	72.5	72.5	72.5	59	57.3	0	1	292	0.00	29.841 
17:10	72.7	72.7	72.7	60	58.0	0	1	292	0.00	29.841 
17:15	73.9	73.9	73.9	55	56.7	1	4	292	0.00	29.840 
17:20	74.0	74.0	74.0	55	56.8	1	4	292	0.00	29.840 
17:25	74.6	74.6	74.6	53	56.3	2	5	270	0.00	29.840 
17:30	75.4	75.4	77.8	51	56.0	2	7	270	0.00	29.840 
17:35	75.8	75.8	77.9	47	54.1	2	6	315	0.00	29.840 
17:40	76.1	76.1	78.1	48	55.0	3	7	292	0.00	29.840 
17:45	76.3	76.3	78.2	48	55.1	2	5	315	0.00	29.841 
17:50	76.5	76.5	78.2	46	54.2	1	5	270	0.00	29.841 
17:55	76.1	76.1	78.0	46	53.8	2	5	270	0.00	29.841 
18:00	76.0	76.0	78.0	45	53.1	1	6	292	0.00	29.843 
18:05	75.6	75.6	77.8	45	52.7	2	6	292	0.00	29.843 
18:10	75.6	75.6	77.8	45	52.7	1	4	315	0.00	29.843 
18:15	75.4	75.4	77.7	44	52.0	1	4	292	0.00	29.844 
18:20	75.1	75.1	77.6	45	52.3	2	6	292	0.00	29.844 
18:25	74.7	74.7	74.7	46	52.5	1	7	292	0.00	29.844 
18:30	74.0	74.0	74.0	47	52.5	1	6	315	0.00	29.853 
18:35	73.5	73.5	73.5	49	53.2	1	6	22	0.00	29.853 
18:40	73.0	73.0	73.0	46	51.0	1	7	292	0.00	29.853 
18:45	72.1	72.1	72.1	44	49.0	1	4	338	0.00	29.859 
18:50	71.6	71.6	71.6	44	48.5	1	4	338	0.00	29.859 
18:55	71.5	71.5	71.5	42	47.2	2	6	292	0.00	29.859 
19:00	70.9	70.9	70.9	44	47.9	1	3	292	0.00	29.863 
19:05	70.4	70.4	70.4	43	46.8	1	3	292	0.00	29.863 
19:10	70.1	70.1	70.1	46	48.3	0	4	292	0.00	29.863 
19:15	69.8	69.8	69.8	45	47.5	0	2	0	0.00	29.860 
19:20	69.3	69.3	69.3	45	47.0	1	3	270	0.00	29.860 
19:25	68.3	68.3	68.3	45	46.1	1	4	338	0.00	29.860 
19:30	67.4	67.4	67.4	46	45.9	0	2	292	0.00	29.877 
19:35	66.8	66.8	66.8	48	46.5	1	3	292	0.00	29.877 
19:40	66.1	66.1	66.1	51	47.4	1	3	338	0.00	29.877 
19:45	65.3	65.3	65.3	55	48.7	1	5	338	0.00	29.880 
19:50	64.3	64.3	64.3	58	49.2	0	1	292	0.00	29.880 
19:55	63.7	63.7	63.7	63	50.9	0	2	292	0.00	29.880 
20:00	62.6	62.6	62.6	66	51.1	0	2	292	0.00	29.882 
20:05	62.1	62.1	62.1	69	51.8	0	1	292	0.00	29.882 
20:10	61.6	61.6	61.6	69	51.3	0	1	292	0.00	29.882 
20:15	61.3	61.3	61.3	70	51.4	0	1	292	0.00	29.883 
20:20	61.2	61.2	61.2	70	51.3	0	1	315	0.00	29.883 
20:25	61.0	61.0	61.0	70	51.1	0	1	315	0.00	29.883 
20:30	60.9	60.9	60.9	71	51.4	0	1	315	0.00	29.881 
20:35	60.7	60.7	60.7	70	50.9	0	1	315	0.00	29.881 
20:40	60.5	60.5	60.5	71	51.0	0	1	315	0.00	29.881 
20:45	60.5	60.5	60.5	71	51.0	0	1	315	0.00	29.879 
20:50	60.4	60.4	60.4	70	50.6	0	1	315	0.00	29.879 
20:55	60.4	60.4	60.4	69	50.2	0	1	315	0.00	29.879 
21:00	60.4	60.4	60.4	66	49.0	0	1	315	0.00	29.883 
21:05	60.2	60.2	60.2	66	48.8	0	1	315	0.00	29.883 
21:10	60.2	60.2	60.2	65	48.4	0	1	315	0.00	29.883 
21:15	59.9	59.9	59.9	66	48.5	0	0	---	0.00	29.887 
21:20	59.8	59.8	59.8	67	48.8	0	1	315	0.00	29.887 
21:25	59.6	59.6	59.6	68	49.0	0	1	315	0.00	29.887 
21:30	59.5	59.5	59.5	69	49.3	0	0	---	0.00	29.887 
21:35	59.3	59.3	59.3	69	49.1	0	1	315	0.00	29.887 
21:40	59.2	59.2	59.2	70	49.4	0	0	---	0.00	29.887 
21:45	59.0	59.0	59.0	69	48.8	0	1	315	0.00	29.892 
21:50	58.9	58.9	58.9	69	48.7	0	1	315	0.00	29.892 
21:55	58.9	58.9	58.9	69	48.7	0	0	---	0.00	29.892 
22:00	58.7	58.7	58.7	68	48.2	0	0	---	0.00	29.900 
22:05	58.7	58.7	58.7	68	48.2	0	1	315	0.00	29.900 
22:10	58.6	58.6	58.6	68	48.1	0	0	---	0.00	29.900 
22:15	58.6	58.6	58.6	67	47.7	0	0	---	0.00	29.899 
22:20	58.4	58.4	58.4	67	47.5	0	0	---	0.00	29.899 
22:25	58.3	58.3	58.3	67	47.4	0	0	---	0.00	29.899 
22:30	58.1	58.1	58.1	68	47.6	0	0	---	0.00	29.904 
22:35	57.8	57.8	57.8	69	47.7	0	0	---	0.00	29.904 
22:40	57.6	57.6	57.6	69	47.5	0	0	---	0.00	29.904 
22:45	57.5	57.5	57.5	70	47.8	0	0	---	0.00	29.906 
22:50	57.2	57.2	57.2	71	47.9	0	0	---	0.00	29.906 
22:55	56.9	56.9	56.9	71	47.6	0	0	---	0.00	29.906 
23:00	56.7	56.7	56.7	71	47.4	0	0	---	0.00	29.909 
23:05	56.5	56.5	56.5	72	47.6	0	0	---	0.00	29.909 
23:10	56.2	56.2	56.2	73	47.7	0	0	---	0.00	29.909 
23:15	55.9	55.9	55.9	73	47.4	0	0	---	0.00	29.908 
23:20	55.6	55.6	55.6	74	47.4	0	0	---	0.00	29.908 
23:25	55.3	55.3	55.3	75	47.5	0	0	---	0.00	29.908 
23:30	54.8	54.8	54.8	76	47.4	0	0	---	0.00	29.910 
23:35	54.5	54.5	54.5	77	47.4	0	0	---	0.00	29.910 
23:40	54.2	54.2	54.2	78	47.5	0	0	---	0.00	29.910 
23:45	53.9	53.9	53.9	80	47.9	0	0	---	0.00	29.911 
23:50	53.5	53.5	53.5	81	47.8	0	0	---	0.00	29.911 
23:55	53.3	53.3	53.3	81	47.6	0	0	---	0.00	29.911 

CoCoRaHS
IN-AL-39
A2 Web Hosting
Creative Commons License
GoDaddy
search engine by freefind advanced

loaded 2018-11-13 01:38:33 • last modified 2010-11-18 10:43:29
Privacy PolicyDisclaimer
• wx.awcolley.com is powered by PmWiki v.2002016 •
• all content (unless otherwise noted) © 2018 A W Colley